Aberdeen Proving Ground, Maryland
Current Conditions -  °F | °C
As of 4:33 AM on Thursday 23 Oct 2014 (Local Time) from KMTN Reporting Station
Overcast Overcast  
Wind Chill: 54°   Ceiling: 3900
Heat Index: 54°   Visibility: 10mi
Dew Point: 46°   Wind: 5mph
Humidity: 77%   Direction: 300°WNW
Pressure: 29.84"   Gusts: 18mph
Location:  39.48°N, 76.13°W
Report Text: KMTN 230833Z AUTO 30004G16KT 10SM SCT028 SCT033 OVC039 12/08 A2984 RMK AO2
Loading
Personal Weather Stations






























Interactive Weather Map
Tropical Storm Tracking
New forecast layout! Learn more

10-Day Weather Forecast

Advertisements
Track Severe Weather on mobile